KLLJ

Details ICAO KLLJ
Name CHALLIS
Region United States
Timezone America/Boise (UTC-6.0)
Plans Departing 2
Arriving 3
Stats Elevation 5,072 ft / 1,546 m (AMSL)
Location 44.522917° -114.217500°
Runways 1
Magnetic Variation 12.844° E
Sunrise 2018-05-25 12:01:10 UTC / 2018-05-25 06:01:10 Local
Sunset 2018-05-26 03:09:24 UTC / 2018-05-25 21:09:24 Local
Advertisement - Login to hide

Runways

ID Width Length Bearing (true) Bearing (mag) Surface Threshold Offset Overrun Length
16 60 ft / 18 m 4,564 ft / 1,391 m 181.82° 168.98° Asphalt 0 ft / 0 m 0 ft / 0 m
34 60 ft / 18 m 4,564 ft / 1,391 m 1.82° 348.98° Asphalt 0 ft / 0 m 0 ft / 0 m

Map

Weather


0- 5 10 15 20 25 30 35+ Temperature / ° C

Clouds and Precipitation
Forecast for 2018-05-25 18:00 UTC. Updated 6 hours ago

Ground ~20,000 ft ~40,000 ft Winds

METAR

KLLJ 252255Z AUTO 08006KT 10SM CLR 27/08 A2986 RMK AO2 SLP052 T02670078

TAF

Not found

Frequencies

Recorded 119.27 MHz ASOS
Unicom 122.80 MHz CTAF/UNICOM
Warning: Do not use this data for real-world aviation or navigation. No guarantee of current accuracy is given.